createdAt,value
2019-02-16T00:00:57.104Z,8.26
2019-02-16T00:03:36.781Z,8.31
2019-02-16T00:06:11.047Z,8.04
2019-02-16T00:08:46.948Z,7.90
2019-02-16T00:11:19.469Z,7.79
2019-02-16T00:13:53.890Z,7.83
2019-02-16T00:16:26.784Z,7.67
2019-02-16T00:18:59.076Z,7.40
2019-02-16T00:21:31.583Z,7.29
2019-02-16T00:24:06.948Z,7.22
2019-02-16T00:26:39.071Z,7.20
2019-02-16T00:29:11.760Z,7.22
2019-02-16T00:31:45.281Z,7.20
2019-02-16T00:34:25.932Z,7.22
2019-02-16T00:36:58.626Z,7.22
2019-02-16T00:39:32.361Z,7.19
2019-02-16T00:42:04.591Z,7.24
2019-02-16T00:44:40.992Z,7.28
2019-02-16T00:47:18.170Z,7.32
2019-02-16T00:49:53.559Z,7.31
2019-02-16T00:52:29.566Z,7.33
2019-02-16T00:55:01.742Z,7.33
2019-02-16T00:57:34.190Z,7.29
2019-02-16T01:00:07.637Z,7.16
2019-02-16T01:02:40.776Z,7.01
2019-02-16T01:05:14.904Z,6.97
2019-02-16T01:07:48.428Z,6.91
2019-02-16T01:10:21.890Z,6.75
2019-02-16T01:12:57.876Z,6.82
2019-02-16T01:15:31.478Z,6.89
2019-02-16T01:18:05.594Z,6.88
2019-02-16T01:20:53.501Z,6.85
2019-02-16T01:23:29.985Z,6.91
2019-02-16T01:26:05.474Z,6.87
2019-02-16T01:28:38.806Z,6.95
2019-02-16T01:31:10.730Z,6.91
2019-02-16T01:33:42.684Z,6.88
2019-02-16T01:36:18.309Z,6.83
2019-02-16T01:38:50.194Z,6.76
2019-02-16T01:41:22.133Z,6.67
2019-02-16T01:43:55.591Z,6.60
2019-02-16T01:46:27.460Z,6.55
2019-02-16T01:48:59.265Z,6.56
2019-02-16T01:51:32.288Z,6.54
2019-02-16T01:54:04.239Z,6.59
2019-02-16T01:56:36.092Z,6.63
2019-02-16T01:59:07.979Z,6.50
2019-02-16T02:01:40.966Z,6.60
2019-02-16T02:04:12.987Z,6.63
2019-02-16T02:06:47.383Z,6.58
2019-02-16T02:09:19.222Z,6.58
2019-02-16T02:11:51.098Z,6.60
2019-02-16T02:14:23.229Z,6.50
2019-02-16T02:16:55.611Z,6.54
2019-02-16T02:19:29.542Z,6.55
2019-02-16T02:22:01.500Z,6.54
2019-02-16T02:24:33.354Z,6.51
2019-02-16T02:27:05.375Z,6.50
2019-02-16T02:29:37.370Z,6.49
2019-02-16T02:32:09.245Z,6.42
2019-02-16T02:34:41.248Z,6.31
2019-02-16T02:37:13.055Z,6.19
2019-02-16T02:39:44.993Z,6.10
2019-02-16T02:42:19.808Z,6.09
2019-02-16T02:44:51.699Z,5.95
2019-02-16T02:47:23.636Z,5.83
2019-02-16T02:49:55.729Z,5.85
2019-02-16T02:52:27.582Z,5.82
2019-02-16T02:54:59.871Z,5.82
2019-02-16T02:58:01.761Z,5.80
2019-02-16T03:00:40.331Z,5.74
2019-02-16T03:03:12.419Z,5.67
2019-02-16T03:05:44.352Z,5.64
2019-02-16T03:08:17.842Z,5.57
2019-02-16T03:10:49.849Z,5.52
2019-02-16T03:13:23.115Z,5.50
2019-02-16T03:15:55.688Z,5.49
2019-02-16T03:18:27.534Z,5.47
2019-02-16T03:20:59.400Z,5.52
2019-02-16T03:23:31.848Z,5.61
2019-02-16T03:26:40.069Z,5.63
2019-02-16T03:29:49.022Z,5.55
2019-02-16T03:32:52.061Z,5.63
2019-02-16T03:35:55.415Z,5.64
2019-02-16T03:38:47.401Z,5.64
2019-02-16T03:41:19.276Z,5.60
2019-02-16T03:43:53.201Z,5.58
2019-02-16T03:46:25.072Z,5.56
2019-02-16T03:48:56.991Z,5.54
2019-02-16T03:51:30.269Z,5.54
2019-02-16T03:54:02.136Z,5.54
2019-02-16T03:56:53.666Z,5.51
2019-02-16T03:59:25.887Z,5.51
2019-02-16T04:01:58.120Z,5.48
2019-02-16T04:04:29.909Z,5.55
2019-02-16T04:07:03.563Z,5.40
2019-02-16T04:09:35.380Z,5.32
2019-02-16T04:12:08.804Z,5.36
2019-02-16T04:14:40.683Z,5.36
2019-02-16T04:17:12.469Z,5.33
2019-02-16T04:19:45.997Z,5.20
2019-02-16T04:22:24.517Z,5.18
2019-02-16T04:24:51.355Z,5.12
2019-02-16T04:27:23.366Z,5.05
2019-02-16T04:29:55.147Z,5.05
2019-02-16T04:32:27.357Z,5.15
2019-02-16T04:34:59.231Z,5.21
2019-02-16T04:37:31.378Z,5.27
2019-02-16T04:40:04.690Z,5.26
2019-02-16T04:42:36.651Z,5.35
2019-02-16T04:45:09.044Z,5.29
2019-02-16T04:47:40.864Z,5.39
2019-02-16T04:50:12.791Z,5.35
2019-02-16T04:52:44.593Z,5.27
2019-02-16T04:55:16.587Z,5.21
2019-02-16T04:57:49.964Z,5.23
2019-02-16T05:00:22.121Z,5.18
2019-02-16T05:02:53.993Z,5.02
2019-02-16T05:05:26.100Z,4.88
2019-02-16T05:07:57.945Z,4.70
2019-02-16T05:10:29.741Z,4.63
2019-02-16T05:13:01.614Z,4.63
2019-02-16T05:15:33.624Z,4.63
2019-02-16T05:18:05.853Z,4.59
2019-02-16T05:20:37.674Z,4.56
2019-02-16T05:23:09.987Z,4.56
2019-02-16T05:25:42.566Z,4.59
2019-02-16T05:28:14.403Z,4.59
2019-02-16T05:30:46.217Z,4.72
2019-02-16T05:33:21.235Z,4.74
2019-02-16T05:35:53.282Z,4.78
2019-02-16T05:38:25.508Z,4.75
2019-02-16T05:40:57.370Z,4.78
2019-02-16T05:43:29.306Z,4.91
2019-02-16T05:46:02.397Z,4.78
2019-02-16T05:48:34.249Z,4.71
2019-02-16T05:51:06.092Z,4.58
2019-02-16T05:53:37.927Z,4.61
2019-02-16T05:56:09.737Z,4.67
2019-02-16T05:58:42.565Z,4.68
2019-02-16T06:01:14.354Z,4.71
2019-02-16T06:03:46.198Z,4.61
2019-02-16T06:06:17.993Z,4.47
2019-02-16T06:08:52.540Z,4.48
2019-02-16T06:11:24.329Z,4.41
2019-02-16T06:13:56.182Z,4.37
2019-02-16T06:16:29.609Z,4.33
2019-02-16T06:19:01.451Z,4.29
2019-02-16T06:21:33.268Z,4.02
2019-02-16T06:24:05.138Z,3.90
2019-02-16T06:26:37.044Z,3.90
2019-02-16T06:29:09.318Z,3.94
2019-02-16T06:31:43.458Z,3.99
2019-02-16T06:34:16.481Z,4.01
2019-02-16T06:36:48.512Z,4.14
2019-02-16T06:39:20.373Z,4.18
2019-02-16T06:41:52.174Z,4.17
2019-02-16T06:44:25.919Z,4.10
2019-02-16T06:46:57.768Z,3.94
2019-02-16T06:49:30.570Z,3.86
2019-02-16T06:52:02.396Z,3.86
2019-02-16T06:54:34.199Z,3.83
2019-02-16T06:57:13.003Z,3.79
2019-02-16T06:59:44.802Z,3.82
2019-02-16T07:02:16.710Z,3.76
2019-02-16T07:04:48.540Z,3.84
2019-02-16T07:07:20.348Z,3.90
2019-02-16T07:09:52.791Z,3.98
2019-02-16T07:12:24.620Z,3.96
2019-02-16T07:14:56.434Z,3.86
2019-02-16T07:17:43.053Z,3.84
2019-02-16T07:20:16.072Z,3.92
2019-02-16T07:22:47.889Z,3.92
2019-02-16T07:25:20.899Z,3.93
2019-02-16T07:27:52.729Z,3.96
2019-02-16T07:30:24.551Z,3.81
2019-02-16T07:32:56.840Z,3.77
2019-02-16T07:35:29.442Z,3.69
2019-02-16T07:38:03.236Z,3.67
2019-02-16T07:40:36.867Z,3.76
2019-02-16T07:43:10.938Z,3.77
2019-02-16T07:45:59.653Z,3.74
2019-02-16T07:48:50.386Z,3.79
2019-02-16T07:51:43.976Z,3.84
2019-02-16T07:54:30.637Z,3.92
2019-02-16T07:57:10.184Z,3.91
2019-02-16T08:00:00.891Z,3.99
2019-02-16T08:02:58.027Z,3.98
2019-02-16T08:05:41.830Z,4.07
2019-02-16T08:08:38.802Z,4.15
2019-02-16T08:11:18.275Z,4.29
2019-02-16T08:13:58.428Z,4.47
2019-02-16T08:16:43.083Z,4.68
2019-02-16T08:19:33.375Z,4.71
2019-02-16T08:22:26.674Z,4.82
2019-02-16T08:25:20.121Z,4.82
2019-02-16T08:28:09.444Z,4.80
2019-02-16T08:30:52.460Z,5.14
2019-02-16T08:33:32.569Z,5.23
2019-02-16T08:36:12.411Z,5.24
2019-02-16T08:39:10.127Z,5.32
2019-02-16T08:42:13.500Z,5.46
2019-02-16T08:45:22.694Z,5.62
2019-02-16T08:48:09.364Z,5.75
2019-02-16T08:50:56.783Z,5.88
2019-02-16T08:53:53.450Z,6.01
2019-02-16T08:56:53.161Z,6.25
2019-02-16T08:59:35.611Z,6.56
2019-02-16T09:02:24.930Z,6.77
2019-02-16T09:05:19.255Z,6.82
2019-02-16T09:07:58.680Z,7.15
2019-02-16T09:10:36.870Z,8.20
2019-02-16T09:13:31.043Z,9.94
2019-02-16T09:16:11.002Z,11.41
2019-02-16T09:19:01.740Z,13.07
2019-02-16T09:21:58.273Z,14.41
2019-02-16T09:25:04.070Z,16.15
2019-02-16T09:27:45.637Z,16.59
2019-02-16T09:30:30.020Z,16.72
2019-02-16T09:33:17.162Z,17.14
2019-02-16T09:36:10.883Z,17.94
2019-02-16T09:39:10.384Z,18.10
2019-02-16T09:41:47.867Z,19.99
2019-02-16T09:44:40.183Z,21.13
2019-02-16T09:47:36.994Z,22.64
2019-02-16T09:50:17.534Z,22.72
2019-02-16T09:53:08.659Z,24.98
2019-02-16T09:56:02.167Z,26.78
2019-02-16T09:58:55.857Z,25.62
2019-02-16T10:01:46.883Z,26.79
2019-02-16T10:04:55.291Z,27.57
2019-02-16T10:07:35.010Z,27.51
2019-02-16T10:10:12.105Z,27.43
2019-02-16T10:13:12.099Z,27.07
2019-02-16T10:16:19.491Z,26.37
2019-02-16T10:19:22.270Z,28.75
2019-02-16T10:22:19.959Z,28.29
2019-02-16T10:25:01.605Z,28.80
2019-02-16T10:27:52.792Z,29.92
2019-02-16T10:30:31.162Z,29.13
2019-02-16T10:33:29.714Z,31.63
2019-02-16T10:36:15.893Z,31.73
2019-02-16T10:39:06.805Z,32.64
2019-02-16T10:41:54.018Z,32.94
2019-02-16T10:44:35.139Z,31.84
2019-02-16T10:47:21.012Z,31.14
2019-02-16T10:50:11.409Z,32.30
2019-02-16T10:53:09.148Z,30.76
2019-02-16T10:56:14.947Z,31.77
2019-02-16T10:59:11.928Z,32.29
2019-02-16T11:02:06.958Z,34.39
2019-02-16T11:04:46.336Z,35.33
2019-02-16T11:07:40.479Z,34.71
2019-02-16T11:10:26.468Z,34.67
2019-02-16T11:13:07.517Z,35.28
2019-02-16T11:16:08.456Z,34.65
2019-02-16T11:18:58.026Z,35.14
2019-02-16T11:21:51.818Z,36.32
2019-02-16T11:24:51.614Z,34.66
2019-02-16T11:27:56.179Z,33.77
2019-02-16T11:30:45.386Z,36.35
2019-02-16T11:33:24.697Z,35.29
2019-02-16T11:36:15.488Z,36.16
2019-02-16T11:39:14.205Z,35.15
2019-02-16T11:42:07.593Z,36.40
2019-02-16T11:45:00.317Z,37.19
2019-02-16T11:48:00.749Z,37.03
2019-02-16T11:50:52.118Z,35.60
2019-02-16T11:53:31.069Z,35.97
2019-02-16T11:56:31.714Z,36.02
2019-02-16T11:59:22.682Z,37.23
2019-02-16T12:02:00.016Z,36.60
2019-02-16T12:04:44.116Z,35.27
2019-02-16T12:07:38.079Z,34.71
2019-02-16T12:10:28.199Z,34.51
2019-02-16T12:13:16.818Z,32.97
2019-02-16T12:15:56.188Z,33.74
2019-02-16T12:19:02.215Z,34.05
2019-02-16T12:21:51.383Z,35.61
2019-02-16T12:25:04.997Z,34.40
2019-02-16T12:27:51.392Z,32.18
2019-02-16T12:30:38.309Z,29.81
2019-02-16T12:33:35.076Z,31.24
2019-02-16T12:36:34.700Z,31.29
2019-02-16T12:39:25.726Z,31.40
2019-02-16T12:42:14.977Z,31.92
2019-02-16T12:45:01.670Z,31.23
2019-02-16T12:48:04.587Z,30.52
2019-02-16T12:50:59.477Z,31.29
2019-02-16T12:53:50.147Z,31.64
2019-02-16T12:56:33.453Z,33.77
2019-02-16T12:59:16.646Z,33.47
2019-02-16T13:02:13.333Z,34.74
2019-02-16T13:05:12.945Z,34.90
2019-02-16T13:07:50.116Z,32.85
2019-02-16T13:10:44.021Z,30.84
2019-02-16T13:13:52.851Z,25.71
2019-02-16T13:16:49.532Z,25.71
2019-02-16T13:19:41.961Z,24.13
2019-02-16T13:22:32.878Z,23.80
2019-02-16T13:25:24.696Z,23.70
2019-02-16T13:28:14.472Z,23.40
2019-02-16T13:31:17.514Z,23.35
2019-02-16T13:34:07.896Z,22.99
2019-02-16T13:36:55.786Z,22.63
2019-02-16T13:39:44.501Z,22.88
2019-02-16T13:42:41.008Z,22.85
2019-02-16T13:45:25.462Z,22.71
2019-02-16T13:48:06.241Z,22.65
2019-02-16T13:50:46.094Z,22.26
2019-02-16T13:53:35.823Z,22.42
2019-02-16T13:56:18.259Z,22.32
2019-02-16T13:59:03.251Z,22.44
2019-02-16T14:01:59.560Z,22.48
2019-02-16T14:05:16.578Z,22.54
2019-02-16T14:08:26.278Z,22.30
2019-02-16T14:11:30.775Z,22.35
2019-02-16T14:14:26.675Z,22.16
2019-02-16T14:17:15.066Z,22.07
2019-02-16T14:19:50.299Z,22.15
2019-02-16T14:22:27.902Z,22.36
2019-02-16T14:25:03.783Z,22.07
2019-02-16T14:27:41.993Z,22.25
2019-02-16T14:30:18.067Z,22.31
2019-02-16T14:32:50.446Z,22.23
2019-02-16T14:35:27.880Z,22.38
2019-02-16T14:38:15.858Z,22.28
2019-02-16T14:40:51.038Z,22.05
2019-02-16T14:43:27.543Z,21.90
2019-02-16T14:46:01.749Z,21.71
2019-02-16T14:48:34.308Z,21.69
2019-02-16T14:51:09.919Z,21.76
2019-02-16T14:53:42.638Z,21.76
2019-02-16T14:56:16.513Z,21.69
2019-02-16T14:58:49.005Z,21.46
2019-02-16T15:01:21.184Z,21.27
2019-02-16T15:03:56.778Z,21.50
2019-02-16T15:06:29.571Z,21.58
2019-02-16T15:09:04.792Z,21.46
2019-02-16T15:11:38.483Z,21.53
2019-02-16T15:14:11.127Z,21.53
2019-02-16T15:16:43.368Z,21.54
2019-02-16T15:19:16.567Z,21.50
2019-02-16T15:21:49.495Z,21.40
2019-02-16T15:24:23.970Z,21.22
2019-02-16T15:27:01.061Z,21.32
2019-02-16T15:29:34.660Z,21.17
2019-02-16T15:32:07.724Z,21.05
2019-02-16T15:34:39.996Z,21.04
2019-02-16T15:37:12.062Z,21.01
2019-02-16T15:39:44.235Z,20.93
2019-02-16T15:42:16.264Z,20.90
2019-02-16T15:44:48.816Z,20.92
2019-02-16T15:47:21.057Z,20.80
2019-02-16T15:49:53.475Z,20.89
2019-02-16T15:52:26.593Z,21.03
2019-02-16T15:55:01.293Z,20.97
2019-02-16T15:57:33.490Z,20.90
2019-02-16T16:00:09.470Z,20.85
2019-02-16T16:02:44.115Z,20.70
2019-02-16T16:05:16.643Z,20.75
2019-02-16T16:07:58.438Z,20.73
2019-02-16T16:10:37.727Z,20.70
2019-02-16T16:13:29.499Z,20.87
2019-02-16T16:16:27.367Z,20.88
2019-02-16T16:19:18.953Z,20.76
2019-02-16T16:22:30.625Z,20.64
2019-02-16T16:25:31.721Z,20.55
2019-02-16T16:28:33.147Z,20.40
2019-02-16T16:31:22.802Z,20.31
2019-02-16T16:34:12.534Z,20.24
2019-02-16T16:37:03.220Z,20.27
2019-02-16T16:39:53.121Z,20.24
2019-02-16T16:42:36.247Z,20.12
2019-02-16T16:45:36.399Z,20.01
2019-02-16T16:48:26.557Z,19.99
2019-02-16T16:51:26.265Z,19.93
2019-02-16T16:54:17.020Z,19.89
2019-02-16T16:57:13.611Z,19.87
2019-02-16T17:00:19.613Z,19.77
2019-02-16T17:03:12.428Z,19.70
2019-02-16T17:06:16.833Z,19.49
2019-02-16T17:09:08.506Z,19.31
2019-02-16T17:11:59.650Z,19.23
2019-02-16T17:14:36.682Z,19.05
2019-02-16T17:20:34.334Z,18.93
2019-02-16T17:23:34.171Z,18.77
2019-02-16T17:26:23.543Z,18.57
2019-02-16T17:29:14.284Z,18.46
2019-02-16T17:31:57.679Z,18.32
2019-02-16T17:34:48.529Z,18.26
2019-02-16T17:37:51.205Z,18.10
2019-02-16T17:40:30.768Z,18.04
2019-02-16T17:43:24.334Z,17.89
2019-02-16T17:46:09.404Z,17.78
2019-02-16T17:49:06.239Z,17.66
2019-02-16T17:51:55.858Z,17.51
2019-02-16T17:54:44.273Z,17.37
2019-02-16T17:57:30.878Z,17.17
2019-02-16T18:00:29.114Z,16.99
2019-02-16T18:03:18.801Z,16.82
2019-02-16T18:06:15.329Z,16.63
2019-02-16T18:09:06.121Z,16.46
2019-02-16T18:12:12.413Z,16.25
2019-02-16T18:15:03.801Z,16.06
2019-02-16T18:18:12.860Z,15.91
2019-02-16T18:21:06.470Z,15.75
2019-02-16T18:24:03.104Z,15.60
2019-02-16T18:26:56.748Z,15.47
2019-02-16T18:29:45.821Z,15.33
2019-02-16T18:32:45.626Z,15.19
2019-02-16T18:35:48.723Z,15.03
2019-02-16T18:38:41.570Z,14.94
2019-02-16T18:41:33.655Z,14.76
2019-02-16T18:44:23.115Z,14.58
2019-02-16T18:47:13.939Z,14.41
2019-02-16T18:50:11.398Z,14.30
2019-02-16T18:53:01.286Z,14.20
2019-02-16T18:55:51.304Z,14.08
2019-02-16T18:58:29.661Z,14.00
2019-02-16T19:01:29.385Z,13.93
2019-02-16T19:04:21.220Z,13.89
2019-02-16T19:07:01.173Z,13.81
2019-02-16T19:09:51.710Z,13.75
2019-02-16T19:12:41.523Z,13.71
2019-02-16T19:15:44.243Z,13.60
2019-02-16T19:18:47.025Z,13.45
2019-02-16T19:21:50.162Z,13.29
2019-02-16T19:24:36.858Z,13.15
2019-02-16T19:27:43.089Z,13.10
2019-02-16T19:30:33.931Z,12.99
2019-02-16T19:33:24.789Z,12.90
2019-02-16T19:36:06.109Z,12.85
2019-02-16T19:39:10.800Z,12.66
2019-02-16T19:41:59.971Z,12.36
2019-02-16T19:45:03.283Z,12.47
2019-02-16T19:47:54.592Z,12.38
2019-02-16T19:51:00.426Z,12.19
2019-02-16T19:54:06.451Z,12.16
2019-02-16T19:57:04.154Z,12.20
2019-02-16T20:00:02.087Z,12.10
2019-02-16T20:02:51.501Z,12.08
2019-02-16T20:05:41.973Z,11.96
2019-02-16T20:08:51.966Z,11.93
2019-02-16T20:11:33.670Z,11.79
2019-02-16T20:14:24.753Z,11.67
2019-02-16T20:17:15.172Z,11.49
2019-02-16T20:19:54.962Z,11.55
2019-02-16T20:22:47.438Z,11.46
2019-02-16T20:25:48.645Z,11.36
2019-02-16T20:28:45.448Z,11.41
2019-02-16T20:31:38.494Z,11.36
2019-02-16T20:34:31.371Z,11.33
2019-02-16T20:37:18.906Z,11.32
2019-02-16T20:40:21.554Z,11.03
2019-02-16T20:43:21.313Z,10.92
2019-02-16T20:46:15.395Z,10.81
2019-02-16T20:48:58.870Z,10.71
2019-02-16T20:51:54.169Z,10.60
2019-02-16T20:54:43.942Z,10.57
2019-02-16T20:57:47.865Z,10.49
2019-02-16T21:00:39.928Z,10.33
2019-02-16T21:03:19.472Z,10.27
2019-02-16T21:06:16.333Z,10.33
2019-02-16T21:09:19.814Z,10.33
2019-02-16T21:12:08.744Z,10.33
2019-02-16T21:14:55.212Z,10.31
2019-02-16T21:17:45.970Z,10.43
2019-02-16T21:20:38.156Z,10.41
2019-02-16T21:23:29.347Z,10.38
2019-02-16T21:26:20.090Z,10.28
2019-02-16T21:29:16.513Z,9.98
2019-02-16T21:32:06.540Z,10.00
2019-02-16T21:34:58.070Z,9.97
2019-02-16T21:37:48.849Z,9.89
2019-02-16T21:40:32.057Z,9.83
2019-02-16T21:43:29.159Z,9.68
2019-02-16T21:46:36.394Z,9.67
2019-02-16T21:49:20.037Z,9.62
2019-02-16T21:52:08.732Z,9.67
2019-02-16T21:55:02.685Z,9.54
2019-02-16T21:58:08.118Z,9.40
2019-02-16T22:01:05.774Z,9.31
2019-02-16T22:03:50.061Z,9.36
2019-02-16T22:06:52.435Z,9.36
2019-02-16T22:09:41.834Z,9.39
2019-02-16T22:12:46.966Z,9.52
2019-02-16T22:15:18.951Z,9.48
2019-02-16T22:17:50.854Z,9.32
2019-02-16T22:20:22.732Z,9.14
2019-02-16T22:22:57.207Z,9.09
2019-02-16T22:25:53.431Z,8.96
2019-02-16T22:28:31.143Z,8.98
2019-02-16T22:31:02.773Z,8.87
2019-02-16T22:33:34.616Z,8.83
2019-02-16T22:36:09.470Z,8.72
2019-02-16T22:38:43.884Z,8.81
2019-02-16T22:41:15.603Z,8.72
2019-02-16T22:43:47.441Z,8.57
2019-02-16T22:46:19.308Z,8.53
2019-02-16T22:48:54.696Z,8.51
2019-02-16T22:51:26.634Z,8.48
2019-02-16T22:53:58.454Z,8.40
2019-02-16T22:56:30.495Z,8.39
2019-02-16T22:59:02.306Z,8.33
2019-02-16T23:01:34.355Z,8.28
2019-02-16T23:04:06.255Z,8.23
2019-02-16T23:06:38.392Z,8.31
2019-02-16T23:09:21.186Z,8.35
2019-02-16T23:11:53.018Z,8.41
2019-02-16T23:14:24.875Z,8.39
2019-02-16T23:16:56.756Z,8.37
2019-02-16T23:19:28.553Z,8.41
2019-02-16T23:22:03.506Z,8.41
2019-02-16T23:24:35.410Z,8.41
2019-02-16T23:27:08.912Z,8.26
2019-02-16T23:29:43.610Z,8.07
2019-02-16T23:32:15.437Z,7.97
2019-02-16T23:34:47.404Z,7.81
2019-02-16T23:37:19.235Z,7.76
2019-02-16T23:39:51.237Z,7.75
2019-02-16T23:42:23.215Z,7.77
2019-02-16T23:44:55.081Z,7.78
2019-02-16T23:47:26.961Z,7.82
2019-02-16T23:49:58.798Z,7.76
2019-02-16T23:52:30.951Z,7.75
2019-02-16T23:55:02.744Z,7.71
2019-02-16T23:57:34.668Z,7.70
